sensor_id;sensor_type;location;lat;lon;timestamp;P1;durP1;ratioP1;P2;durP2;ratioP2
50709;SDS011;37033;49.994;21.992;2022-10-26T00:00:48;11.10;;;9.50;;
50709;SDS011;37033;49.994;21.992;2022-10-26T00:03:40;15.20;;;10.20;;
50709;SDS011;37033;49.994;21.992;2022-10-26T00:06:31;13.40;;;10.80;;
50709;SDS011;37033;49.994;21.992;2022-10-26T00:09:22;12.90;;;10.50;;
50709;SDS011;37033;49.994;21.992;2022-10-26T00:12:12;15.20;;;10.80;;
50709;SDS011;37033;49.994;21.992;2022-10-26T00:15:02;11.70;;;9.80;;
50709;SDS011;37033;49.994;21.992;2022-10-26T00:17:53;14.10;;;10.00;;
50709;SDS011;37033;49.994;21.992;2022-10-26T00:20:44;13.00;;;9.90;;
50709;SDS011;37033;49.994;21.992;2022-10-26T00:23:34;16.70;;;10.40;;
50709;SDS011;37033;49.994;21.992;2022-10-26T00:26:24;16.00;;;11.30;;
50709;SDS011;37033;49.994;21.992;2022-10-26T00:29:14;17.60;;;11.60;;
50709;SDS011;37033;49.994;21.992;2022-10-26T00:32:05;18.50;;;11.70;;
50709;SDS011;37033;49.994;21.992;2022-10-26T00:34:55;16.20;;;11.50;;
50709;SDS011;37033;49.994;21.992;2022-10-26T00:37:45;15.60;;;10.40;;
50709;SDS011;37033;49.994;21.992;2022-10-26T00:40:35;19.30;;;11.70;;
50709;SDS011;37033;49.994;21.992;2022-10-26T00:43:38;13.60;;;10.50;;
50709;SDS011;37033;49.994;21.992;2022-10-26T00:46:29;13.50;;;10.40;;
50709;SDS011;37033;49.994;21.992;2022-10-26T00:49:22;13.70;;;11.00;;
50709;SDS011;37033;49.994;21.992;2022-10-26T00:52:12;12.40;;;9.80;;
50709;SDS011;37033;49.994;21.992;2022-10-26T00:55:08;13.80;;;10.50;;
50709;SDS011;37033;49.994;21.992;2022-10-26T00:57:58;13.60;;;9.50;;
50709;SDS011;37033;49.994;21.992;2022-10-26T01:00:51;12.50;;;9.30;;
50709;SDS011;37033;49.994;21.992;2022-10-26T01:03:42;14.50;;;9.70;;
50709;SDS011;37033;49.994;21.992;2022-10-26T01:06:34;13.10;;;10.60;;
50709;SDS011;37033;49.994;21.992;2022-10-26T01:09:26;19.00;;;11.60;;
50709;SDS011;37033;49.994;21.992;2022-10-26T01:12:16;15.40;;;10.90;;
50709;SDS011;37033;49.994;21.992;2022-10-26T01:15:07;17.50;;;11.30;;
50709;SDS011;37033;49.994;21.992;2022-10-26T01:18:00;13.90;;;10.30;;
50709;SDS011;37033;49.994;21.992;2022-10-26T01:21:02;13.50;;;10.80;;
50709;SDS011;37033;49.994;21.992;2022-10-26T01:27:27;11.60;;;9.30;;
50709;SDS011;37033;49.994;21.992;2022-10-26T01:30:19;12.90;;;10.20;;
50709;SDS011;37033;49.994;21.992;2022-10-26T01:33:17;13.50;;;9.60;;
50709;SDS011;37033;49.994;21.992;2022-10-26T01:36:16;13.60;;;10.30;;
50709;SDS011;37033;49.994;21.992;2022-10-26T01:39:13;15.10;;;9.10;;
50709;SDS011;37033;49.994;21.992;2022-10-26T01:42:06;15.50;;;9.00;;
50709;SDS011;37033;49.994;21.992;2022-10-26T01:44:59;13.20;;;10.00;;
50709;SDS011;37033;49.994;21.992;2022-10-26T01:47:53;11.50;;;10.10;;
50709;SDS011;37033;49.994;21.992;2022-10-26T01:50:45;13.70;;;9.50;;
50709;SDS011;37033;49.994;21.992;2022-10-26T01:53:42;14.90;;;9.90;;
50709;SDS011;37033;49.994;21.992;2022-10-26T01:56:35;14.10;;;10.10;;
50709;SDS011;37033;49.994;21.992;2022-10-26T01:59:31;15.90;;;11.00;;
50709;SDS011;37033;49.994;21.992;2022-10-26T02:05:58;17.90;;;11.90;;
50709;SDS011;37033;49.994;21.992;2022-10-26T02:08:59;16.60;;;11.10;;
50709;SDS011;37033;49.994;21.992;2022-10-26T02:11:55;18.60;;;11.70;;
50709;SDS011;37033;49.994;21.992;2022-10-26T02:14:50;19.40;;;11.00;;
50709;SDS011;37033;49.994;21.992;2022-10-26T02:17:47;14.60;;;12.20;;
50709;SDS011;37033;49.994;21.992;2022-10-26T02:20:41;19.00;;;12.30;;
50709;SDS011;37033;49.994;21.992;2022-10-26T02:23:36;18.60;;;12.10;;
50709;SDS011;37033;49.994;21.992;2022-10-26T02:26:29;18.30;;;12.50;;
50709;SDS011;37033;49.994;21.992;2022-10-26T02:29:23;14.20;;;11.00;;
50709;SDS011;37033;49.994;21.992;2022-10-26T02:32:15;15.40;;;11.70;;
50709;SDS011;37033;49.994;21.992;2022-10-26T02:35:09;18.60;;;12.40;;
50709;SDS011;37033;49.994;21.992;2022-10-26T02:38:03;18.90;;;11.90;;
50709;SDS011;37033;49.994;21.992;2022-10-26T02:40:56;16.50;;;11.20;;
50709;SDS011;37033;49.994;21.992;2022-10-26T02:43:49;17.20;;;11.30;;
50709;SDS011;37033;49.994;21.992;2022-10-26T02:46:44;17.80;;;11.40;;
50709;SDS011;37033;49.994;21.992;2022-10-26T02:49:34;14.60;;;10.60;;
50709;SDS011;37033;49.994;21.992;2022-10-26T02:52:26;13.40;;;10.60;;
50709;SDS011;37033;49.994;21.992;2022-10-26T02:55:26;14.10;;;10.90;;
50709;SDS011;37033;49.994;21.992;2022-10-26T02:58:19;16.00;;;12.00;;
50709;SDS011;37033;49.994;21.992;2022-10-26T03:01:14;17.30;;;10.60;;
50709;SDS011;37033;49.994;21.992;2022-10-26T03:04:05;15.70;;;10.70;;
50709;SDS011;37033;49.994;21.992;2022-10-26T03:06:55;17.90;;;10.70;;
50709;SDS011;37033;49.994;21.992;2022-10-26T03:09:45;18.50;;;10.40;;
50709;SDS011;37033;49.994;21.992;2022-10-26T03:12:35;12.80;;;11.10;;
50709;SDS011;37033;49.994;21.992;2022-10-26T03:15:25;16.30;;;11.80;;
50709;SDS011;37033;49.994;21.992;2022-10-26T03:18:16;19.00;;;11.40;;
50709;SDS011;37033;49.994;21.992;2022-10-26T03:21:06;18.30;;;11.50;;
50709;SDS011;37033;49.994;21.992;2022-10-26T03:23:57;16.90;;;12.30;;
50709;SDS011;37033;49.994;21.992;2022-10-26T03:26:47;19.20;;;11.80;;
50709;SDS011;37033;49.994;21.992;2022-10-26T03:29:37;17.80;;;11.80;;
50709;SDS011;37033;49.994;21.992;2022-10-26T03:32:27;16.00;;;12.00;;
50709;SDS011;37033;49.994;21.992;2022-10-26T03:35:17;23.90;;;12.80;;
50709;SDS011;37033;49.994;21.992;2022-10-26T03:38:07;18.90;;;12.50;;
50709;SDS011;37033;49.994;21.992;2022-10-26T03:40:57;16.60;;;12.70;;
50709;SDS011;37033;49.994;21.992;2022-10-26T03:43:48;18.70;;;12.20;;
50709;SDS011;37033;49.994;21.992;2022-10-26T03:46:39;18.70;;;13.50;;
50709;SDS011;37033;49.994;21.992;2022-10-26T03:49:29;59.80;;;34.70;;
50709;SDS011;37033;49.994;21.992;2022-10-26T03:52:19;23.30;;;14.50;;
50709;SDS011;37033;49.994;21.992;2022-10-26T03:55:10;18.20;;;12.80;;
50709;SDS011;37033;49.994;21.992;2022-10-26T03:58:01;18.00;;;12.30;;
50709;SDS011;37033;49.994;21.992;2022-10-26T04:00:51;16.50;;;12.40;;
50709;SDS011;37033;49.994;21.992;2022-10-26T04:03:41;16.00;;;12.20;;
50709;SDS011;37033;49.994;21.992;2022-10-26T04:06:31;19.60;;;12.40;;
50709;SDS011;37033;49.994;21.992;2022-10-26T04:09:21;18.30;;;13.10;;
50709;SDS011;37033;49.994;21.992;2022-10-26T04:12:12;15.20;;;12.20;;
50709;SDS011;37033;49.994;21.992;2022-10-26T04:15:02;19.70;;;11.80;;
50709;SDS011;37033;49.994;21.992;2022-10-26T04:17:57;24.80;;;14.60;;
50709;SDS011;37033;49.994;21.992;2022-10-26T04:20:48;20.70;;;13.20;;
50709;SDS011;37033;49.994;21.992;2022-10-26T04:23:39;14.60;;;12.00;;
50709;SDS011;37033;49.994;21.992;2022-10-26T04:26:29;16.20;;;10.90;;
50709;SDS011;37033;49.994;21.992;2022-10-26T04:29:19;18.70;;;11.50;;
50709;SDS011;37033;49.994;21.992;2022-10-26T04:32:09;15.20;;;11.60;;
50709;SDS011;37033;49.994;21.992;2022-10-26T04:34:59;15.10;;;10.80;;
50709;SDS011;37033;49.994;21.992;2022-10-26T04:37:49;15.40;;;10.50;;
50709;SDS011;37033;49.994;21.992;2022-10-26T04:40:43;13.30;;;10.80;;
50709;SDS011;37033;49.994;21.992;2022-10-26T04:43:33;15.50;;;11.30;;
50709;SDS011;37033;49.994;21.992;2022-10-26T04:46:24;16.00;;;10.90;;
50709;SDS011;37033;49.994;21.992;2022-10-26T04:49:14;16.00;;;11.50;;
50709;SDS011;37033;49.994;21.992;2022-10-26T04:52:05;13.60;;;11.40;;
50709;SDS011;37033;49.994;21.992;2022-10-26T04:54:55;14.90;;;11.10;;
50709;SDS011;37033;49.994;21.992;2022-10-26T04:57:45;18.30;;;11.80;;
50709;SDS011;37033;49.994;21.992;2022-10-26T05:00:35;16.50;;;11.60;;
50709;SDS011;37033;49.994;21.992;2022-10-26T05:03:25;17.30;;;11.40;;
50709;SDS011;37033;49.994;21.992;2022-10-26T05:06:16;13.20;;;10.20;;
50709;SDS011;37033;49.994;21.992;2022-10-26T05:09:06;17.00;;;11.00;;
50709;SDS011;37033;49.994;21.992;2022-10-26T05:11:57;21.80;;;11.50;;
50709;SDS011;37033;49.994;21.992;2022-10-26T05:14:47;19.80;;;11.30;;
50709;SDS011;37033;49.994;21.992;2022-10-26T05:17:37;15.20;;;11.20;;
50709;SDS011;37033;49.994;21.992;2022-10-26T05:20:28;16.40;;;11.50;;
50709;SDS011;37033;49.994;21.992;2022-10-26T05:23:20;12.90;;;10.10;;
50709;SDS011;37033;49.994;21.992;2022-10-26T05:26:10;17.00;;;11.10;;
50709;SDS011;37033;49.994;21.992;2022-10-26T05:29:00;15.20;;;11.30;;
50709;SDS011;37033;49.994;21.992;2022-10-26T05:31:51;17.70;;;11.60;;
50709;SDS011;37033;49.994;21.992;2022-10-26T05:34:41;13.90;;;10.60;;
50709;SDS011;37033;49.994;21.992;2022-10-26T05:37:32;16.40;;;11.70;;
50709;SDS011;37033;49.994;21.992;2022-10-26T05:40:22;16.40;;;10.70;;
50709;SDS011;37033;49.994;21.992;2022-10-26T05:43:13;18.50;;;12.10;;
50709;SDS011;37033;49.994;21.992;2022-10-26T05:46:05;20.20;;;12.60;;
50709;SDS011;37033;49.994;21.992;2022-10-26T05:48:55;14.20;;;11.20;;
50709;SDS011;37033;49.994;21.992;2022-10-26T05:51:45;15.30;;;11.60;;
50709;SDS011;37033;49.994;21.992;2022-10-26T05:54:35;14.70;;;11.30;;
50709;SDS011;37033;49.994;21.992;2022-10-26T05:57:26;17.20;;;11.00;;
50709;SDS011;37033;49.994;21.992;2022-10-26T06:00:17;15.60;;;10.90;;
50709;SDS011;37033;49.994;21.992;2022-10-26T06:03:13;15.30;;;11.20;;
50709;SDS011;37033;49.994;21.992;2022-10-26T06:06:15;14.30;;;10.40;;
50709;SDS011;37033;49.994;21.992;2022-10-26T06:09:07;18.10;;;12.00;;
50709;SDS011;37033;49.994;21.992;2022-10-26T06:11:59;18.90;;;11.20;;
50709;SDS011;37033;49.994;21.992;2022-10-26T06:14:50;17.60;;;11.20;;
50709;SDS011;37033;49.994;21.992;2022-10-26T06:17:44;14.30;;;11.10;;
50709;SDS011;37033;49.994;21.992;2022-10-26T06:20:47;12.90;;;9.50;;
50709;SDS011;37033;49.994;21.992;2022-10-26T06:23:52;13.20;;;11.10;;
50709;SDS011;37033;49.994;21.992;2022-10-26T06:29:47;17.30;;;10.30;;
50709;SDS011;37033;49.994;21.992;2022-10-26T06:32:44;14.90;;;9.50;;
50709;SDS011;37033;49.994;21.992;2022-10-26T06:35:36;16.30;;;9.30;;
50709;SDS011;37033;49.994;21.992;2022-10-26T06:38:34;15.40;;;9.30;;
50709;SDS011;37033;49.994;21.992;2022-10-26T06:41:32;10.70;;;9.30;;
50709;SDS011;37033;49.994;21.992;2022-10-26T06:44:23;13.80;;;9.50;;
50709;SDS011;37033;49.994;21.992;2022-10-26T06:47:15;15.40;;;10.10;;
50709;SDS011;37033;49.994;21.992;2022-10-26T06:50:16;14.90;;;9.10;;
50709;SDS011;37033;49.994;21.992;2022-10-26T06:53:17;13.40;;;9.00;;
50709;SDS011;37033;49.994;21.992;2022-10-26T06:56:13;10.90;;;8.60;;
50709;SDS011;37033;49.994;21.992;2022-10-26T06:59:05;16.40;;;8.80;;
50709;SDS011;37033;49.994;21.992;2022-10-26T07:02:01;12.90;;;8.30;;
50709;SDS011;37033;49.994;21.992;2022-10-26T07:04:51;13.50;;;8.60;;
50709;SDS011;37033;49.994;21.992;2022-10-26T07:07:42;10.90;;;8.30;;
50709;SDS011;37033;49.994;21.992;2022-10-26T07:10:34;9.50;;;8.30;;
50709;SDS011;37033;49.994;21.992;2022-10-26T07:13:25;11.30;;;7.80;;
50709;SDS011;37033;49.994;21.992;2022-10-26T07:16:15;8.20;;;7.10;;
50709;SDS011;37033;49.994;21.992;2022-10-26T07:19:07;8.40;;;7.50;;
50709;SDS011;37033;49.994;21.992;2022-10-26T07:21:57;11.00;;;8.20;;
50709;SDS011;37033;49.994;21.992;2022-10-26T07:24:48;9.70;;;7.60;;
50709;SDS011;37033;49.994;21.992;2022-10-26T07:27:39;10.40;;;7.90;;
50709;SDS011;37033;49.994;21.992;2022-10-26T07:30:29;11.40;;;8.60;;
50709;SDS011;37033;49.994;21.992;2022-10-26T07:33:20;10.60;;;8.20;;
50709;SDS011;37033;49.994;21.992;2022-10-26T07:36:10;11.00;;;9.20;;
50709;SDS011;37033;49.994;21.992;2022-10-26T07:39:01;14.00;;;8.40;;
50709;SDS011;37033;49.994;21.992;2022-10-26T07:41:52;19.20;;;9.70;;
50709;SDS011;37033;49.994;21.992;2022-10-26T07:44:42;11.90;;;8.60;;
50709;SDS011;37033;49.994;21.992;2022-10-26T07:47:32;13.40;;;9.90;;
50709;SDS011;37033;49.994;21.992;2022-10-26T07:50:22;13.70;;;8.60;;
50709;SDS011;37033;49.994;21.992;2022-10-26T07:53:13;14.70;;;9.00;;
50709;SDS011;37033;49.994;21.992;2022-10-26T07:56:04;11.60;;;8.10;;
50709;SDS011;37033;49.994;21.992;2022-10-26T07:58:55;15.10;;;9.00;;
50709;SDS011;37033;49.994;21.992;2022-10-26T08:01:45;11.30;;;7.50;;
50709;SDS011;37033;49.994;21.992;2022-10-26T08:04:35;14.50;;;7.30;;
50709;SDS011;37033;49.994;21.992;2022-10-26T08:07:26;7.80;;;7.00;;
50709;SDS011;37033;49.994;21.992;2022-10-26T08:10:16;9.90;;;7.10;;
50709;SDS011;37033;49.994;21.992;2022-10-26T08:13:06;12.10;;;8.10;;
50709;SDS011;37033;49.994;21.992;2022-10-26T08:15:57;11.30;;;9.00;;
50709;SDS011;37033;49.994;21.992;2022-10-26T08:18:48;12.20;;;8.20;;
50709;SDS011;37033;49.994;21.992;2022-10-26T08:21:38;8.20;;;6.60;;
50709;SDS011;37033;49.994;21.992;2022-10-26T08:24:29;8.90;;;5.90;;
50709;SDS011;37033;49.994;21.992;2022-10-26T08:27:19;9.10;;;7.30;;
50709;SDS011;37033;49.994;21.992;2022-10-26T08:30:10;13.30;;;6.70;;
50709;SDS011;37033;49.994;21.992;2022-10-26T08:33:02;12.30;;;7.50;;
50709;SDS011;37033;49.994;21.992;2022-10-26T08:35:57;14.10;;;7.20;;
50709;SDS011;37033;49.994;21.992;2022-10-26T08:38:48;12.90;;;7.00;;
50709;SDS011;37033;49.994;21.992;2022-10-26T08:41:40;11.60;;;6.10;;
50709;SDS011;37033;49.994;21.992;2022-10-26T08:44:33;11.50;;;5.30;;
50709;SDS011;37033;49.994;21.992;2022-10-26T08:47:28;12.70;;;6.30;;
50709;SDS011;37033;49.994;21.992;2022-10-26T08:50:26;11.50;;;5.60;;
50709;SDS011;37033;49.994;21.992;2022-10-26T08:53:19;9.20;;;5.70;;
50709;SDS011;37033;49.994;21.992;2022-10-26T08:56:14;7.20;;;4.70;;
50709;SDS011;37033;49.994;21.992;2022-10-26T08:59:08;5.80;;;4.60;;
50709;SDS011;37033;49.994;21.992;2022-10-26T09:02:09;11.00;;;4.40;;
50709;SDS011;37033;49.994;21.992;2022-10-26T09:05:01;10.10;;;3.80;;
50709;SDS011;37033;49.994;21.992;2022-10-26T09:08:01;6.60;;;4.10;;
50709;SDS011;37033;49.994;21.992;2022-10-26T09:10:57;8.40;;;3.80;;
50709;SDS011;37033;49.994;21.992;2022-10-26T09:13:58;8.60;;;3.80;;
50709;SDS011;37033;49.994;21.992;2022-10-26T09:17:00;8.00;;;4.00;;
50709;SDS011;37033;49.994;21.992;2022-10-26T09:20:05;6.70;;;3.60;;
50709;SDS011;37033;49.994;21.992;2022-10-26T09:23:16;10.60;;;3.50;;
50709;SDS011;37033;49.994;21.992;2022-10-26T09:26:20;4.30;;;3.00;;
50709;SDS011;37033;49.994;21.992;2022-10-26T09:29:19;6.70;;;3.80;;
50709;SDS011;37033;49.994;21.992;2022-10-26T09:32:15;5.40;;;2.80;;
50709;SDS011;37033;49.994;21.992;2022-10-26T09:35:12;6.70;;;2.70;;
50709;SDS011;37033;49.994;21.992;2022-10-26T09:38:08;7.80;;;3.10;;
50709;SDS011;37033;49.994;21.992;2022-10-26T09:41:08;2.70;;;2.30;;
50709;SDS011;37033;49.994;21.992;2022-10-26T09:44:10;5.10;;;2.60;;
50709;SDS011;37033;49.994;21.992;2022-10-26T09:47:12;7.00;;;3.40;;
50709;SDS011;37033;49.994;21.992;2022-10-26T09:50:15;5.20;;;3.00;;
50709;SDS011;37033;49.994;21.992;2022-10-26T09:53:11;6.10;;;3.20;;
50709;SDS011;37033;49.994;21.992;2022-10-26T09:56:02;7.50;;;3.00;;
50709;SDS011;37033;49.994;21.992;2022-10-26T09:58:55;10.10;;;2.90;;
50709;SDS011;37033;49.994;21.992;2022-10-26T10:01:50;3.80;;;2.60;;
50709;SDS011;37033;49.994;21.992;2022-10-26T10:04:41;7.30;;;2.80;;
50709;SDS011;37033;49.994;21.992;2022-10-26T10:07:35;10.70;;;3.10;;
50709;SDS011;37033;49.994;21.992;2022-10-26T10:10:25;5.40;;;3.30;;
50709;SDS011;37033;49.994;21.992;2022-10-26T10:13:16;3.80;;;2.50;;
50709;SDS011;37033;49.994;21.992;2022-10-26T10:16:09;5.50;;;2.50;;
50709;SDS011;37033;49.994;21.992;2022-10-26T10:19:09;3.20;;;2.60;;
50709;SDS011;37033;49.994;21.992;2022-10-26T10:22:17;4.90;;;2.30;;
50709;SDS011;37033;49.994;21.992;2022-10-26T10:25:21;5.30;;;2.00;;
50709;SDS011;37033;49.994;21.992;2022-10-26T10:28:21;2.50;;;2.30;;
50709;SDS011;37033;49.994;21.992;2022-10-26T10:31:19;2.30;;;2.00;;
50709;SDS011;37033;49.994;21.992;2022-10-26T10:34:19;8.20;;;2.60;;
50709;SDS011;37033;49.994;21.992;2022-10-26T10:37:18;3.30;;;2.00;;
50709;SDS011;37033;49.994;21.992;2022-10-26T10:40:16;5.10;;;2.40;;
50709;SDS011;37033;49.994;21.992;2022-10-26T10:43:11;6.30;;;2.50;;
50709;SDS011;37033;49.994;21.992;2022-10-26T10:46:03;3.40;;;1.90;;
50709;SDS011;37033;49.994;21.992;2022-10-26T10:48:54;3.60;;;1.80;;
50709;SDS011;37033;49.994;21.992;2022-10-26T10:51:51;3.50;;;1.90;;
50709;SDS011;37033;49.994;21.992;2022-10-26T10:54:42;5.00;;;1.80;;
50709;SDS011;37033;49.994;21.992;2022-10-26T10:57:42;4.70;;;1.70;;
50709;SDS011;37033;49.994;21.992;2022-10-26T11:00:43;5.60;;;2.20;;
50709;SDS011;37033;49.994;21.992;2022-10-26T11:03:40;4.70;;;2.30;;
50709;SDS011;37033;49.994;21.992;2022-10-26T11:06:41;9.70;;;2.80;;
50709;SDS011;37033;49.994;21.992;2022-10-26T11:09:35;3.90;;;2.60;;
50709;SDS011;37033;49.994;21.992;2022-10-26T11:12:29;9.30;;;2.80;;
50709;SDS011;37033;49.994;21.992;2022-10-26T11:15:23;10.00;;;2.70;;
50709;SDS011;37033;49.994;21.992;2022-10-26T11:18:17;12.30;;;3.40;;
50709;SDS011;37033;49.994;21.992;2022-10-26T11:21:14;7.00;;;2.50;;
50709;SDS011;37033;49.994;21.992;2022-10-26T11:24:12;7.70;;;3.20;;
50709;SDS011;37033;49.994;21.992;2022-10-26T11:27:07;9.10;;;3.40;;
50709;SDS011;37033;49.994;21.992;2022-10-26T11:30:03;14.40;;;5.50;;
50709;SDS011;37033;49.994;21.992;2022-10-26T11:33:01;8.40;;;3.50;;
50709;SDS011;37033;49.994;21.992;2022-10-26T11:35:58;5.80;;;2.70;;
50709;SDS011;37033;49.994;21.992;2022-10-26T11:38:54;4.30;;;2.80;;
50709;SDS011;37033;49.994;21.992;2022-10-26T11:41:49;4.90;;;2.40;;
50709;SDS011;37033;49.994;21.992;2022-10-26T11:44:50;5.00;;;2.90;;
50709;SDS011;37033;49.994;21.992;2022-10-26T11:47:47;9.90;;;3.10;;
50709;SDS011;37033;49.994;21.992;2022-10-26T11:50:40;7.10;;;2.90;;
50709;SDS011;37033;49.994;21.992;2022-10-26T11:53:34;8.70;;;4.20;;
50709;SDS011;37033;49.994;21.992;2022-10-26T11:56:29;5.90;;;3.20;;
50709;SDS011;37033;49.994;21.992;2022-10-26T11:59:24;9.20;;;2.10;;
50709;SDS011;37033;49.994;21.992;2022-10-26T12:02:19;6.40;;;3.40;;
50709;SDS011;37033;49.994;21.992;2022-10-26T12:05:15;8.50;;;2.70;;
50709;SDS011;37033;49.994;21.992;2022-10-26T12:08:11;4.10;;;2.10;;
50709;SDS011;37033;49.994;21.992;2022-10-26T12:11:07;4.50;;;1.90;;
50709;SDS011;37033;49.994;21.992;2022-10-26T12:14:02;2.70;;;1.80;;
50709;SDS011;37033;49.994;21.992;2022-10-26T12:17:03;6.00;;;2.10;;
50709;SDS011;37033;49.994;21.992;2022-10-26T12:20:02;10.20;;;2.20;;
50709;SDS011;37033;49.994;21.992;2022-10-26T12:23:00;10.80;;;1.80;;
50709;SDS011;37033;49.994;21.992;2022-10-26T12:25:54;4.10;;;1.50;;
50709;SDS011;37033;49.994;21.992;2022-10-26T12:29:28;3.90;;;1.40;;
50709;SDS011;37033;49.994;21.992;2022-10-26T12:32:51;4.00;;;1.20;;
50709;SDS011;37033;49.994;21.992;2022-10-26T12:35:44;6.30;;;1.40;;
50709;SDS011;37033;49.994;21.992;2022-10-26T12:41:47;5.70;;;1.80;;
50709;SDS011;37033;49.994;21.992;2022-10-26T12:45:05;6.60;;;1.30;;
50709;SDS011;37033;49.994;21.992;2022-10-26T12:48:19;10.80;;;1.60;;
50709;SDS011;37033;49.994;21.992;2022-10-26T12:54:34;2.60;;;1.10;;
50709;SDS011;37033;49.994;21.992;2022-10-26T12:57:36;5.80;;;1.40;;
50709;SDS011;37033;49.994;21.992;2022-10-26T13:00:33;4.60;;;1.30;;
50709;SDS011;37033;49.994;21.992;2022-10-26T13:03:28;7.50;;;2.40;;
50709;SDS011;37033;49.994;21.992;2022-10-26T13:06:42;9.00;;;2.20;;
50709;SDS011;37033;49.994;21.992;2022-10-26T13:09:45;5.00;;;1.90;;
50709;SDS011;37033;49.994;21.992;2022-10-26T13:12:46;3.60;;;1.90;;
50709;SDS011;37033;49.994;21.992;2022-10-26T13:15:38;7.00;;;2.50;;
50709;SDS011;37033;49.994;21.992;2022-10-26T13:18:44;6.20;;;1.90;;
50709;SDS011;37033;49.994;21.992;2022-10-26T13:21:39;6.40;;;2.40;;
50709;SDS011;37033;49.994;21.992;2022-10-26T13:24:36;9.10;;;2.70;;
50709;SDS011;37033;49.994;21.992;2022-10-26T13:27:41;7.40;;;2.70;;
50709;SDS011;37033;49.994;21.992;2022-10-26T13:30:45;5.90;;;2.40;;
50709;SDS011;37033;49.994;21.992;2022-10-26T13:33:36;7.10;;;1.60;;
50709;SDS011;37033;49.994;21.992;2022-10-26T13:36:31;4.50;;;1.50;;
50709;SDS011;37033;49.994;21.992;2022-10-26T13:39:26;6.00;;;1.80;;
50709;SDS011;37033;49.994;21.992;2022-10-26T13:42:20;4.20;;;1.50;;
50709;SDS011;37033;49.994;21.992;2022-10-26T13:45:12;7.60;;;1.90;;
50709;SDS011;37033;49.994;21.992;2022-10-26T13:48:09;5.90;;;2.10;;
50709;SDS011;37033;49.994;21.992;2022-10-26T13:51:03;4.50;;;2.10;;
50709;SDS011;37033;49.994;21.992;2022-10-26T13:54:05;6.00;;;1.70;;
50709;SDS011;37033;49.994;21.992;2022-10-26T13:57:04;3.10;;;1.70;;
50709;SDS011;37033;49.994;21.992;2022-10-26T14:00:09;3.50;;;1.40;;
50709;SDS011;37033;49.994;21.992;2022-10-26T14:03:18;8.50;;;2.00;;
50709;SDS011;37033;49.994;21.992;2022-10-26T14:06:13;2.50;;;1.30;;
50709;SDS011;37033;49.994;21.992;2022-10-26T14:09:12;6.10;;;1.60;;
50709;SDS011;37033;49.994;21.992;2022-10-26T14:12:04;7.90;;;1.50;;
50709;SDS011;37033;49.994;21.992;2022-10-26T14:15:00;5.80;;;1.90;;
50709;SDS011;37033;49.994;21.992;2022-10-26T14:17:54;4.90;;;1.70;;
50709;SDS011;37033;49.994;21.992;2022-10-26T14:20:48;7.10;;;1.50;;
50709;SDS011;37033;49.994;21.992;2022-10-26T14:23:47;6.70;;;1.50;;
50709;SDS011;37033;49.994;21.992;2022-10-26T14:26:41;4.30;;;1.60;;
50709;SDS011;37033;49.994;21.992;2022-10-26T14:29:36;12.00;;;2.00;;
50709;SDS011;37033;49.994;21.992;2022-10-26T14:32:27;7.40;;;2.30;;
50709;SDS011;37033;49.994;21.992;2022-10-26T14:35:19;3.80;;;2.60;;
50709;SDS011;37033;49.994;21.992;2022-10-26T14:38:13;5.20;;;1.80;;
50709;SDS011;37033;49.994;21.992;2022-10-26T14:41:07;11.10;;;2.30;;
50709;SDS011;37033;49.994;21.992;2022-10-26T14:43:58;7.00;;;2.10;;
50709;SDS011;37033;49.994;21.992;2022-10-26T14:46:50;10.40;;;2.90;;
50709;SDS011;37033;49.994;21.992;2022-10-26T14:49:43;8.60;;;2.40;;
50709;SDS011;37033;49.994;21.992;2022-10-26T14:52:34;9.80;;;4.00;;
50709;SDS011;37033;49.994;21.992;2022-10-26T14:55:25;9.80;;;3.30;;
50709;SDS011;37033;49.994;21.992;2022-10-26T14:58:18;17.50;;;4.20;;
50709;SDS011;37033;49.994;21.992;2022-10-26T15:01:15;10.90;;;3.50;;
50709;SDS011;37033;49.994;21.992;2022-10-26T15:07:32;25.40;;;4.70;;
50709;SDS011;37033;49.994;21.992;2022-10-26T15:13:38;38.40;;;11.20;;
50709;SDS011;37033;49.994;21.992;2022-10-26T15:16:31;30.90;;;10.20;;
50709;SDS011;37033;49.994;21.992;2022-10-26T15:19:23;61.30;;;15.90;;
50709;SDS011;37033;49.994;21.992;2022-10-26T15:22:18;39.40;;;11.90;;
50709;SDS011;37033;49.994;21.992;2022-10-26T15:25:15;36.80;;;8.30;;
50709;SDS011;37033;49.994;21.992;2022-10-26T15:28:09;38.20;;;8.90;;
50709;SDS011;37033;49.994;21.992;2022-10-26T15:31:23;64.00;;;10.20;;
50709;SDS011;37033;49.994;21.992;2022-10-26T15:34:21;85.20;;;12.40;;
50709;SDS011;37033;49.994;21.992;2022-10-26T15:37:12;72.70;;;13.90;;
50709;SDS011;37033;49.994;21.992;2022-10-26T15:40:02;87.80;;;13.40;;
50709;SDS011;37033;49.994;21.992;2022-10-26T15:42:54;67.50;;;11.90;;
50709;SDS011;37033;49.994;21.992;2022-10-26T15:45:48;59.20;;;9.10;;
50709;SDS011;37033;49.994;21.992;2022-10-26T15:48:40;36.40;;;8.00;;
50709;SDS011;37033;49.994;21.992;2022-10-26T15:51:35;27.20;;;7.60;;
50709;SDS011;37033;49.994;21.992;2022-10-26T15:54:26;17.80;;;7.00;;
50709;SDS011;37033;49.994;21.992;2022-10-26T15:57:16;28.00;;;7.10;;
50709;SDS011;37033;49.994;21.992;2022-10-26T16:00:09;16.80;;;5.80;;
50709;SDS011;37033;49.994;21.992;2022-10-26T16:03:04;18.30;;;7.40;;
50709;SDS011;37033;49.994;21.992;2022-10-26T16:05:57;11.90;;;7.00;;
50709;SDS011;37033;49.994;21.992;2022-10-26T16:08:50;27.90;;;8.00;;
50709;SDS011;37033;49.994;21.992;2022-10-26T16:11:44;13.40;;;7.70;;
50709;SDS011;37033;49.994;21.992;2022-10-26T16:14:34;17.00;;;8.90;;
50709;SDS011;37033;49.994;21.992;2022-10-26T16:17:24;19.10;;;10.90;;
50709;SDS011;37033;49.994;21.992;2022-10-26T16:20:16;24.00;;;13.00;;
50709;SDS011;37033;49.994;21.992;2022-10-26T16:23:09;25.20;;;14.00;;
50709;SDS011;37033;49.994;21.992;2022-10-26T16:25:59;24.10;;;13.60;;
50709;SDS011;37033;49.994;21.992;2022-10-26T16:28:52;27.80;;;12.10;;
50709;SDS011;37033;49.994;21.992;2022-10-26T16:31:43;24.90;;;12.20;;
50709;SDS011;37033;49.994;21.992;2022-10-26T16:34:33;40.90;;;21.50;;
50709;SDS011;37033;49.994;21.992;2022-10-26T16:37:23;39.90;;;17.20;;
50709;SDS011;37033;49.994;21.992;2022-10-26T16:40:15;79.10;;;30.40;;
50709;SDS011;37033;49.994;21.992;2022-10-26T16:43:06;79.90;;;33.30;;
50709;SDS011;37033;49.994;21.992;2022-10-26T16:45:56;81.70;;;35.70;;
50709;SDS011;37033;49.994;21.992;2022-10-26T16:48:48;74.80;;;34.90;;
50709;SDS011;37033;49.994;21.992;2022-10-26T16:51:39;76.30;;;34.00;;
50709;SDS011;37033;49.994;21.992;2022-10-26T16:54:30;66.70;;;31.80;;
50709;SDS011;37033;49.994;21.992;2022-10-26T16:57:20;72.80;;;33.40;;
50709;SDS011;37033;49.994;21.992;2022-10-26T17:00:11;84.10;;;35.30;;
50709;SDS011;37033;49.994;21.992;2022-10-26T17:03:03;83.50;;;35.30;;
50709;SDS011;37033;49.994;21.992;2022-10-26T17:05:55;99.90;;;38.40;;
50709;SDS011;37033;49.994;21.992;2022-10-26T17:08:46;123.90;;;46.70;;
50709;SDS011;37033;49.994;21.992;2022-10-26T17:11:38;92.50;;;40.10;;
50709;SDS011;37033;49.994;21.992;2022-10-26T17:14:28;92.40;;;41.30;;
50709;SDS011;37033;49.994;21.992;2022-10-26T17:17:18;109.00;;;44.70;;
50709;SDS011;37033;49.994;21.992;2022-10-26T17:20:10;96.90;;;44.40;;